Time;durP1;ratioP1;P1;durP2;ratioP2;P2;SDS_P1;SDS_P2;PMS_P1;PMS_P2;Temp;Humidity;BMP_temperature;BMP_pressure;BME280_temperature;BME280_humidity;BME280_pressure;Samples;Min_cycle;Max_cycle;Signal;HPM_P1;HPM_P2
2022/04/17 00:01:31;;;;;;;1999.90;999.90;;;9.60;22.60;;;;;;5032924;28;20174;-69
2022/04/17 00:03:57;;;;;;;1999.90;999.90;;;9.60;23.10;;;;;;5033185;28;20176;-68
2022/04/17 00:06:23;;;;;;;1999.90;999.90;;;9.50;23.00;;;;;;5033030;28;20183;-70
2022/04/17 00:08:49;;;;;;;1999.90;999.90;;;9.50;23.60;;;;;;5033482;28;20221;-70
2022/04/17 00:11:15;;;;;;;1999.90;999.90;;;9.50;24.00;;;;;;5033089;28;20170;-71
2022/04/17 00:13:44;;;;;;;1999.90;999.90;;;9.60;25.00;;;;;;5032996;28;20476;-68
2022/04/17 00:16:10;;;;;;;1999.90;999.90;;;9.50;24.70;;;;;;5032765;28;20883;-68
2022/04/17 00:18:36;;;;;;;1999.90;999.90;;;9.50;25.40;;;;;;5032918;28;20426;-68
2022/04/17 00:21:03;;;;;;;1999.90;999.90;;;9.50;25.30;;;;;;5032788;28;20836;-68
2022/04/17 00:23:28;;;;;;;1999.90;999.90;;;9.40;24.70;;;;;;5032904;28;20443;-71
2022/04/17 00:25:54;;;;;;;1999.90;999.90;;;9.50;25.90;;;;;;5032604;28;20437;-71
2022/04/17 00:28:19;;;;;;;1999.90;999.90;;;9.50;26.40;;;;;;5032666;28;20190;-71
2022/04/17 00:30:45;;;;;;;1999.90;999.90;;;9.50;27.10;;;;;;5073311;22;20320;-72
2022/04/17 00:33:11;;;;;;;1999.90;999.90;;;9.40;26.70;;;;;;5032919;28;20291;-72
2022/04/17 00:35:38;;;;;;;1999.90;999.90;;;9.40;26.80;;;;;;5034126;28;20200;-73
2022/04/17 00:38:04;;;;;;;1999.90;999.90;;;9.30;27.30;;;;;;5034901;28;20161;-72
2022/04/17 00:40:30;;;;;;;1999.90;999.90;;;9.30;27.60;;;;;;5032723;28;20519;-72
2022/04/17 00:42:59;;;;;;;1999.90;999.90;;;9.30;27.60;;;;;;5032885;28;20490;-72
2022/04/17 00:45:25;;;;;;;1999.90;999.90;;;9.40;28.40;;;;;;5032507;28;20194;-72
2022/04/17 00:47:51;;;;;;;1999.90;999.90;;;9.30;27.70;;;;;;5032807;28;20406;-72
2022/04/17 00:50:16;;;;;;;1999.90;999.90;;;9.20;28.20;;;;;;5032574;28;20992;-72
2022/04/17 00:52:44;;;;;;;1999.90;999.90;;;9.30;28.90;;;;;;5032730;28;20193;-72
2022/04/17 00:55:10;;;;;;;1999.90;999.90;;;9.20;28.80;;;;;;5031997;28;20649;-72
2022/04/17 00:57:36;;;;;;;1999.90;999.90;;;9.30;28.90;;;;;;5032157;28;20402;-71
2022/04/17 01:00:04;;;;;;;1999.90;999.90;;;9.30;29.20;;;;;;5032187;28;20420;-71
2022/04/17 01:02:32;;;;;;;1999.90;999.90;;;9.20;28.90;;;;;;5032138;28;20785;-72
2022/04/17 01:04:58;;;;;;;1999.90;999.90;;;9.20;28.60;;;;;;5031901;28;20406;-71
2022/04/17 01:07:24;;;;;;;1999.90;999.90;;;9.10;28.90;;;;;;5032150;28;20432;-71
2022/04/17 01:09:51;;;;;;;1999.90;999.90;;;9.00;28.80;;;;;;5032083;28;20683;-71
2022/04/17 01:12:18;;;;;;;1999.90;999.90;;;9.00;29.10;;;;;;5031633;28;20172;-71
2022/04/17 01:14:44;;;;;;;1999.90;999.90;;;9.00;30.00;;;;;;5031416;28;20401;-71
2022/04/17 01:17:11;;;;;;;1999.90;999.90;;;8.90;31.70;;;;;;5031938;28;20415;-71
2022/04/17 01:19:39;;;;;;;1999.90;999.90;;;8.90;32.40;;;;;;5031896;28;20455;-71
2022/04/17 01:22:10;;;;;;;1999.90;999.90;;;8.80;31.70;;;;;;5032010;28;20763;-71
2022/04/17 01:27:22;;;;;;;1999.90;999.90;;;8.60;32.60;;;;;;5032212;28;20412;-71
2022/04/17 01:29:50;;;;;;;1999.90;999.90;;;8.50;36.20;;;;;;5031662;28;20860;-72
2022/04/17 01:32:17;;;;;;;1999.90;999.90;;;8.50;36.00;;;;;;5031862;28;20470;-72
2022/04/17 01:34:43;;;;;;;1999.90;999.90;;;8.40;35.90;;;;;;5031615;28;20429;-71
2022/04/17 01:37:09;;;;;;;1999.90;999.90;;;8.30;37.60;;;;;;5031880;28;20403;-71
2022/04/17 01:39:34;;;;;;;1999.90;999.90;;;8.20;38.70;;;;;;5031776;28;20489;-71
2022/04/17 01:42:01;;;;;;;1999.90;999.90;;;8.00;39.70;;;;;;5031813;28;20267;-71
2022/04/17 01:44:28;;;;;;;1999.90;999.90;;;7.90;41.70;;;;;;5031394;28;20762;-71
2022/04/17 01:46:55;;;;;;;1999.90;999.90;;;7.90;45.10;;;;;;5031847;28;20487;-72
2022/04/17 01:49:21;;;;;;;1999.90;999.90;;;7.90;47.20;;;;;;5031634;28;20428;-71
2022/04/17 01:51:48;;;;;;;1999.90;999.90;;;7.90;48.70;;;;;;5031733;28;20397;-71
2022/04/17 01:54:15;;;;;;;1999.90;999.90;;;7.90;52.90;;;;;;5031391;28;20502;-71
2022/04/17 01:56:42;;;;;;;1999.90;999.90;;;8.00;52.20;;;;;;5031559;28;20440;-71
2022/04/17 01:59:09;;;;;;;1999.90;999.90;;;8.00;53.90;;;;;;5031470;28;20421;-72
2022/04/17 02:01:36;;;;;;;1999.90;999.90;;;7.90;55.40;;;;;;5031657;28;20500;-71
2022/04/17 02:04:02;;;;;;;1999.90;999.90;;;7.90;56.30;;;;;;5031209;28;20473;-71
2022/04/17 02:06:28;;;;;;;1999.90;999.90;;;7.90;57.90;;;;;;5031626;28;20422;-71
2022/04/17 02:08:54;;;;;;;1999.90;999.90;;;7.90;58.50;;;;;;5031510;28;21111;-72
2022/04/17 02:11:22;;;;;;;1999.90;999.90;;;7.90;58.90;;;;;;5031399;28;20166;-72
2022/04/17 02:13:49;;;;;;;1999.90;999.90;;;7.90;61.40;;;;;;5031532;28;20412;-72
2022/04/17 02:16:17;;;;;;;1999.90;999.90;;;7.80;62.90;;;;;;5031511;28;20442;-72
2022/04/17 02:18:44;;;;;;;1999.90;999.90;;;7.90;68.00;;;;;;5031783;28;20774;-72
2022/04/17 02:21:11;;;;;;;1999.90;999.90;;;7.90;70.90;;;;;;5032138;28;20771;-72
2022/04/17 02:23:36;;;;;;;1999.90;999.90;;;7.70;70.80;;;;;;5031911;28;20486;-72
2022/04/17 02:26:02;;;;;;;1999.90;999.90;;;7.80;72.50;;;;;;5035178;28;21156;-72
2022/04/17 02:28:34;;;;;;;1999.90;999.90;;;7.80;74.40;;;;;;5035401;28;20180;-72
2022/04/17 02:31:00;;;;;;;1999.90;999.90;;;7.70;81.30;;;;;;5035387;28;20200;-72
2022/04/17 02:33:26;;;;;;;1999.90;999.90;;;7.70;82.90;;;;;;5035408;28;20443;-73
2022/04/17 02:35:54;;;;;;;1999.90;999.90;;;7.60;82.40;;;;;;5036282;28;20527;-72
2022/04/17 02:38:19;;;;;;;1999.90;999.90;;;7.60;87.30;;;;;;5034909;28;20181;-72
2022/04/17 02:40:46;;;;;;;1999.90;999.90;;;7.60;91.70;;;;;;5034780;28;20418;-71
2022/04/17 02:43:11;;;;;;;1999.90;999.90;;;7.60;92.10;;;;;;5034777;28;20256;-72
2022/04/17 02:45:37;;;;;;;1999.90;999.90;;;7.60;93.70;;;;;;5034739;28;20491;-72
2022/04/17 02:48:03;;;;;;;1999.90;999.90;;;7.60;95.30;;;;;;5034834;28;20177;-72
2022/04/17 02:50:29;;;;;;;1999.90;999.90;;;7.60;96.20;;;;;;5034702;28;20269;-71
2022/04/17 02:52:57;;;;;;;1999.90;999.90;;;7.60;97.10;;;;;;5034621;28;20532;-72
2022/04/17 02:55:23;;;;;;;1999.90;999.90;;;7.50;99.00;;;;;;5033444;28;20200;-72
2022/04/17 02:57:49;;;;;;;1999.90;999.90;;;7.40;99.30;;;;;;5034406;28;20408;-72
2022/04/17 03:00:15;;;;;;;1999.90;999.90;;;7.40;99.90;;;;;;5034431;28;20431;-72
2022/04/17 03:05:36;;;;;;;1999.90;999.90;;;7.30;99.90;;;;;;5034704;28;20453;-72
2022/04/17 03:08:22;;;;;;;1999.90;999.90;;;7.30;99.90;;;;;;5034598;28;20404;-72
2022/04/17 03:10:48;;;;;;;1999.90;999.90;;;7.30;99.90;;;;;;5034293;28;20537;-72
2022/04/17 03:13:14;;;;;;;1999.90;999.90;;;7.10;99.90;;;;;;5034316;28;20498;-72
2022/04/17 03:15:40;;;;;;;1999.90;999.90;;;7.10;99.90;;;;;;5033563;28;20713;-72
2022/04/17 03:18:08;;;;;;;1999.90;999.90;;;7.10;99.90;;;;;;5034433;28;20404;-72
2022/04/17 03:20:34;;;;;;;1999.90;999.90;;;7.10;99.90;;;;;;5034041;28;20184;-72
2022/04/17 03:22:59;;;;;;;1999.90;999.90;;;7.00;99.90;;;;;;5034126;28;20403;-72
2022/04/17 03:25:25;;;;;;;1999.90;999.90;;;7.00;99.90;;;;;;5033655;28;20175;-73
2022/04/17 03:27:51;;;;;;;1999.90;999.90;;;7.00;99.90;;;;;;5034395;28;20624;-73
2022/04/17 03:30:17;;;;;;;1999.90;999.90;;;6.90;99.90;;;;;;5034239;28;20254;-73
2022/04/17 03:32:44;;;;;;;1999.90;999.90;;;7.00;99.90;;;;;;5034202;28;20166;-73
2022/04/17 03:35:11;;;;;;;1999.90;999.90;;;7.00;99.90;;;;;;5033255;28;20438;-73
2022/04/17 03:37:36;;;;;;;1999.90;999.90;;;7.00;99.90;;;;;;5015890;28;20438;-73
2022/04/17 03:40:03;;;;;;;1999.90;999.90;;;6.90;99.90;;;;;;5034155;28;20434;-73
2022/04/17 03:42:28;;;;;;;1999.90;999.90;;;7.00;99.90;;;;;;5034032;28;20565;-73
2022/04/17 03:44:54;;;;;;;1999.90;999.90;;;7.00;99.90;;;;;;5033198;28;20399;-73
2022/04/17 03:47:19;;;;;;;1999.90;999.90;;;7.00;99.90;;;;;;5034057;28;20535;-74
2022/04/17 03:49:45;;;;;;;1999.90;999.90;;;7.00;99.90;;;;;;5033880;28;20193;-73
2022/04/17 03:52:11;;;;;;;1999.90;999.90;;;7.00;99.90;;;;;;5033872;28;20165;-73
2022/04/17 03:54:37;;;;;;;1999.90;999.90;;;7.00;99.90;;;;;;5033637;28;20399;-73
2022/04/17 03:57:03;;;;;;;1999.90;999.90;;;6.90;99.90;;;;;;5033546;28;20458;-73
2022/04/17 03:59:31;;;;;;;1999.90;999.90;;;6.90;99.90;;;;;;5033669;28;20203;-73
2022/04/17 04:01:58;;;;;;;1999.90;999.90;;;6.90;99.90;;;;;;5033637;28;20404;-73
2022/04/17 04:04:23;;;;;;;1999.90;999.90;;;6.80;99.90;;;;;;5032938;28;20431;-72
2022/04/17 04:06:50;;;;;;;1999.90;999.90;;;6.80;99.90;;;;;;5033276;28;20569;-71
2022/04/17 04:09:16;;;;;;;1999.90;999.90;;;6.80;99.90;;;;;;5033067;28;20188;-72
2022/04/17 04:11:44;;;;;;;1999.90;999.90;;;6.70;99.90;;;;;;5033093;28;20498;-72
2022/04/17 04:14:10;;;;;;;1999.90;999.90;;;6.70;99.90;;;;;;5032320;28;20164;-72
2022/04/17 04:16:36;;;;;;;1999.90;999.90;;;6.70;99.90;;;;;;5033074;28;20916;-72
2022/04/17 04:19:02;;;;;;;1999.90;999.90;;;6.60;99.90;;;;;;5032986;28;20515;-73
2022/04/17 04:21:28;;;;;;;1999.90;999.90;;;6.60;99.90;;;;;;5032941;28;20414;-71
2022/04/17 04:23:54;;;;;;;1999.90;999.90;;;6.50;99.90;;;;;;5032851;28;20491;-72
2022/04/17 04:26:20;;;;;;;1999.90;999.90;;;6.50;99.90;;;;;;5032061;28;20172;-71
2022/04/17 04:28:45;;;;;;;1999.90;999.90;;;6.60;99.90;;;;;;5032620;28;20461;-72
2022/04/17 04:31:13;;;;;;;1999.90;999.90;;;6.60;99.90;;;;;;5032808;28;20603;-72
2022/04/17 04:33:42;;;;;;;1999.90;999.90;;;6.60;99.90;;;;;;5032737;28;20218;-72
2022/04/17 04:36:12;;;;;;;1999.90;999.90;;;6.60;99.90;;;;;;5032102;28;20477;-73
2022/04/17 04:38:39;;;;;;;1999.90;999.90;;;6.40;99.90;;;;;;5032833;28;20757;-72
2022/04/17 04:41:05;;;;;;;1999.90;999.90;;;6.40;99.90;;;;;;5032672;28;20411;-72
2022/04/17 04:43:31;;;;;;;1999.90;999.90;;;6.50;99.90;;;;;;5032516;28;20442;-72
2022/04/17 04:46:06;;;;;;;1999.90;999.90;;;6.50;99.90;;;;;;5031871;28;20399;-72
2022/04/17 04:51:22;;;;;;;1999.90;999.90;;;6.40;99.90;;;;;;5032600;28;20406;-72
2022/04/17 04:53:48;;;;;;;1999.90;999.90;;;6.40;99.90;;;;;;5032419;28;20446;-72
2022/04/17 04:56:15;;;;;;;1999.90;999.90;;;6.40;99.90;;;;;;5032521;28;20474;-72
2022/04/17 04:58:41;;;;;;;1999.90;999.90;;;6.40;99.90;;;;;;5033312;28;20439;-73
2022/04/17 05:01:07;;;;;;;1999.90;999.90;;;6.40;99.90;;;;;;5033280;28;20395;-72
2022/04/17 05:03:33;;;;;;;1999.90;999.90;;;6.40;99.90;;;;;;5033415;28;20939;-73
2022/04/17 05:05:58;;;;;;;1999.90;999.90;;;6.30;99.90;;;;;;5032973;28;20248;-73
2022/04/17 05:08:24;;;;;;;1999.90;999.90;;;6.40;99.90;;;;;;5033356;28;20866;-73
2022/04/17 05:10:50;;;;;;;1999.90;999.90;;;6.30;99.90;;;;;;5032787;28;20848;-71
2022/04/17 05:13:17;;;;;;;1999.90;999.90;;;6.30;99.90;;;;;;5032427;28;20221;-72
2022/04/17 05:15:42;;;;;;;1999.90;999.90;;;6.30;99.90;;;;;;5032401;28;20742;-72
2022/04/17 05:18:09;;;;;;;1999.90;999.90;;;6.40;99.90;;;;;;5033280;28;20502;-73
2022/04/17 05:20:35;;;;;;;1999.90;999.90;;;6.40;99.90;;;;;;5033266;28;20422;-73
2022/04/17 05:23:21;;;;;;;1999.90;999.90;;;6.40;99.90;;;;;;5033154;28;20407;-73
2022/04/17 05:25:49;;;;;;;1999.90;999.90;;;6.40;99.90;;;;;;5032244;28;20176;-73
2022/04/17 05:28:15;;;;;;;1999.90;999.90;;;6.50;99.90;;;;;;5033098;28;20412;-72
2022/04/17 05:30:41;;;;;;;1999.90;999.90;;;6.50;99.90;;;;;;5032424;28;20445;-72
2022/04/17 05:33:07;;;;;;;1999.90;999.90;;;6.50;99.90;;;;;;5032683;28;20204;-73
2022/04/17 05:35:33;;;;;;;1999.90;999.90;;;6.60;99.90;;;;;;5014483;28;20914;-73
2022/04/17 05:37:59;;;;;;;1999.90;999.90;;;6.60;99.90;;;;;;5033029;28;20164;-72
2022/04/17 05:40:24;;;;;;;1999.90;999.90;;;6.80;99.90;;;;;;5032862;28;20932;-72
2022/04/17 05:42:50;;;;;;;1999.90;999.90;;;6.70;99.90;;;;;;5032785;28;20175;-72
2022/04/17 05:45:16;;;;;;;1999.90;999.90;;;6.80;99.90;;;;;;5031601;28;20633;-72
2022/04/17 05:47:42;;;;;;;1999.90;999.90;;;6.90;99.90;;;;;;5031696;28;20442;-72
2022/04/17 05:50:08;;;;;;;1999.90;999.90;;;7.00;99.90;;;;;;5031554;28;20860;-72
2022/04/17 05:52:34;;;;;;;1999.90;999.90;;;7.10;99.90;;;;;;5031570;28;20403;-72
2022/04/17 05:55:00;;;;;;;1999.90;999.90;;;7.10;99.90;;;;;;5031216;28;20184;-72
2022/04/17 05:57:25;;;;;;;1999.90;999.90;;;7.20;99.90;;;;;;5031638;28;20412;-73
2022/04/17 05:59:51;;;;;;;1999.90;999.90;;;7.20;99.90;;;;;;5033771;28;20514;-72
2022/04/17 06:02:17;;;;;;;1999.90;999.90;;;7.30;99.90;;;;;;5035627;28;20630;-72
2022/04/17 06:04:42;;;;;;;1999.90;999.90;;;7.30;99.90;;;;;;5035137;28;20204;-72
2022/04/17 06:07:11;;;;;;;1999.90;999.90;;;7.40;99.90;;;;;;5035411;28;20579;-71
2022/04/17 06:09:36;;;;;;;1999.90;999.90;;;7.50;99.90;;;;;;5035257;28;20272;-72
2022/04/17 06:12:02;;;;;;;1999.90;999.90;;;7.60;99.90;;;;;;5035370;28;20877;-72
2022/04/17 06:14:28;;;;;;;1999.90;999.90;;;7.70;99.90;;;;;;5035060;28;20183;-73
2022/04/17 06:16:54;;;;;;;1999.90;999.90;;;7.70;99.90;;;;;;5017482;28;20545;-72
2022/04/17 06:19:19;;;;;;;1999.90;999.90;;;7.80;99.90;;;;;;5035202;28;20203;-72
2022/04/17 06:21:45;;;;;;;1999.90;999.90;;;7.90;99.90;;;;;;5035183;28;20630;-72
2022/04/17 06:24:12;;;;;;;1999.90;999.90;;;8.00;99.90;;;;;;5034793;28;20214;-73
2022/04/17 06:26:37;;;;;;;1999.90;999.90;;;8.10;99.90;;;;;;5035098;28;20686;-72
2022/04/17 06:29:07;;;;;;;1999.90;999.90;;;8.20;99.90;;;;;;5035324;28;20447;-72
2022/04/17 06:31:34;;;;;;;1999.90;999.90;;;8.20;99.90;;;;;;5034978;28;20183;-72
2022/04/17 06:33:59;;;;;;;1999.90;999.90;;;8.40;99.90;;;;;;5034139;28;20418;-71
2022/04/17 06:36:25;;;;;;;1999.90;999.90;;;8.40;99.90;;;;;;5034113;28;20443;-72
2022/04/17 06:38:50;;;;;;;1999.90;999.90;;;8.50;99.90;;;;;;5034761;28;20173;-72
2022/04/17 06:41:16;;;;;;;1999.90;999.90;;;8.50;99.90;;;;;;5034855;28;20161;-72
2022/04/17 06:43:42;;;;;;;1999.90;999.90;;;8.60;99.90;;;;;;5034790;28;20180;-72
2022/04/17 06:46:07;;;;;;;1999.90;999.90;;;8.80;99.90;;;;;;5034540;28;20676;-72
2022/04/17 06:48:33;;;;;;;1999.90;999.90;;;8.90;99.90;;;;;;5034684;28;20972;-72
2022/04/17 06:50:59;;;;;;;1999.90;999.90;;;8.90;99.90;;;;;;5034554;28;20204;-72
2022/04/17 06:53:25;;;;;;;1999.90;999.90;;;9.00;99.90;;;;;;5034553;28;20691;-72
2022/04/17 06:55:52;;;;;;;1999.90;999.90;;;9.10;99.90;;;;;;5034461;28;20725;-72
2022/04/17 06:58:19;;;;;;;1999.90;999.90;;;9.20;99.90;;;;;;5034658;28;20170;-72
2022/04/17 07:00:45;;;;;;;1999.90;999.90;;;9.30;99.90;;;;;;5034554;28;20815;-73
2022/04/17 07:03:13;;;;;;;1999.90;999.90;;;9.40;99.90;;;;;;5034551;28;20462;-73
2022/04/17 07:05:39;;;;;;;1999.90;999.90;;;9.60;99.90;;;;;;5034240;28;20506;-72
2022/04/17 07:08:06;;;;;;;1999.90;999.90;;;9.70;99.90;;;;;;5034607;28;20472;-73
2022/04/17 07:10:34;;;;;;;1999.90;999.90;;;9.80;99.90;;;;;;5033377;28;20698;-72
2022/04/17 07:12:59;;;;;;;1999.90;999.90;;;9.80;99.90;;;;;;5034412;28;20414;-72
2022/04/17 07:15:25;;;;;;;1999.90;999.90;;;9.90;99.90;;;;;;5034023;28;20453;-72
2022/04/17 07:17:53;;;;;;;1999.90;999.90;;;10.00;99.90;;;;;;5034529;28;20645;-73
2022/04/17 07:20:19;;;;;;;1999.90;999.90;;;10.10;99.90;;;;;;5034193;28;20430;-73
2022/04/17 07:22:45;;;;;;;1999.90;999.90;;;10.20;99.90;;;;;;5034362;28;20418;-73
2022/04/17 07:25:12;;;;;;;1999.90;999.90;;;10.40;99.90;;;;;;5033884;28;20505;-73
2022/04/17 07:27:38;;;;;;;1999.90;999.90;;;10.40;99.90;;;;;;5034205;28;20414;-73
2022/04/17 07:30:12;;;;;;;1999.90;999.90;;;10.50;99.90;;;;;;5033981;28;20472;-73
2022/04/17 07:32:39;;;;;;;1999.90;999.90;;;10.50;99.90;;;;;;5034227;28;20412;-74
2022/04/17 07:35:05;;;;;;;1999.90;999.90;;;10.50;99.90;;;;;;5033745;28;20407;-73
2022/04/17 07:37:35;;;;;;;1999.90;999.90;;;10.60;99.90;;;;;;5034088;28;20410;-74
2022/04/17 07:40:01;;;;;;;1999.90;999.90;;;10.80;99.90;;;;;;5033741;28;20461;-73
2022/04/17 07:42:28;;;;;;;1999.90;999.90;;;10.90;99.90;;;;;;5032921;28;21008;-74
2022/04/17 07:44:53;;;;;;;1999.90;999.90;;;11.00;99.90;;;;;;5033407;28;20900;-74
2022/04/17 07:47:19;;;;;;;1999.90;999.90;;;11.00;99.90;;;;;;5033760;28;20414;-73
2022/04/17 07:49:45;;;;;;;1999.90;999.90;;;11.00;99.90;;;;;;5033574;28;20560;-74
2022/04/17 07:52:11;;;;;;;1999.90;999.90;;;11.00;99.90;;;;;;5033554;28;20178;-74
2022/04/17 07:54:36;;;;;;;1999.90;999.90;;;11.00;99.90;;;;;;5033283;28;20274;-74
2022/04/17 07:57:03;;;;;;;1999.90;999.90;;;11.10;99.90;;;;;;5033400;28;20549;-73
2022/04/17 07:59:28;;;;;;;1999.90;999.90;;;11.30;99.90;;;;;;5033395;28;20192;-72
2022/04/17 08:02:01;;;;;;;1999.90;999.90;;;11.50;99.90;;;;;;5033317;28;20417;-73
2022/04/17 08:04:28;;;;;;;1999.90;999.90;;;11.40;99.90;;;;;;5033104;28;20167;-72
2022/04/17 08:06:54;;;;;;;1999.90;999.90;;;11.60;99.90;;;;;;5033238;28;20418;-73
2022/04/17 08:09:20;;;;;;;1999.90;999.90;;;11.70;99.90;;;;;;5033318;28;20471;-73
2022/04/17 08:11:51;;;;;;;1999.90;999.90;;;11.80;98.60;;;;;;5033432;28;20442;-72
2022/04/17 08:14:20;;;;;;;1999.90;999.90;;;11.80;99.90;;;;;;5033147;28;20223;-73
2022/04/17 08:16:46;;;;;;;1999.90;999.90;;;12.00;99.90;;;;;;5033313;28;20979;-73
2022/04/17 08:19:12;;;;;;;1999.90;999.90;;;12.20;99.90;;;;;;5032710;28;20446;-72
2022/04/17 08:21:40;;;;;;;1999.90;999.90;;;12.40;99.90;;;;;;5033053;28;20172;-73
2022/04/17 08:24:06;;;;;;;1999.90;999.90;;;12.50;99.50;;;;;;5032949;28;20687;-73
2022/04/17 08:26:32;;;;;;;1999.90;999.90;;;12.60;98.30;;;;;;5032855;28;20418;-72
2022/04/17 08:28:58;;;;;;;1999.90;999.90;;;12.60;96.40;;;;;;5032688;28;20901;-72
2022/04/17 08:31:24;;;;;;;1999.90;999.90;;;12.50;94.90;;;;;;5032930;28;20423;-72
2022/04/17 08:33:49;;;;;;;1999.90;999.90;;;12.50;93.90;;;;;;5032571;28;20781;-72
2022/04/17 08:36:15;;;;;;;1999.90;999.90;;;12.60;90.40;;;;;;5032354;28;20204;-73
2022/04/17 08:38:42;;;;;;;1999.90;999.90;;;12.60;91.10;;;;;;5032764;28;20609;-72
2022/04/17 08:41:10;;;;;;;1999.90;999.90;;;12.60;91.20;;;;;;5032738;28;20531;-72
2022/04/17 08:43:36;;;;;;;1999.90;999.90;;;12.70;87.10;;;;;;5032438;28;20512;-72
2022/04/17 08:46:03;;;;;;;1999.90;999.90;;;12.90;92.70;;;;;;5032184;28;20524;-71
2022/04/17 08:48:28;;;;;;;1999.90;999.90;;;13.00;92.00;;;;;;5032392;28;20468;-72
2022/04/17 08:50:55;;;;;;;1999.90;999.90;;;13.10;90.20;;;;;;5032364;28;20432;-72
2022/04/17 08:53:22;;;;;;;1999.90;999.90;;;13.30;92.90;;;;;;5032439;28;20173;-72
2022/04/17 08:55:49;;;;;;;1999.90;999.90;;;13.50;93.70;;;;;;5032060;28;20440;-72
2022/04/17 08:58:14;;;;;;;1999.90;999.90;;;13.60;85.50;;;;;;5032229;28;20434;-72
2022/04/17 09:00:40;;;;;;;1999.90;999.90;;;13.70;84.60;;;;;;5032231;28;20510;-72
2022/04/17 09:03:09;;;;;;;1999.90;999.90;;;13.80;86.50;;;;;;5032231;28;20532;-72
2022/04/17 09:05:37;;;;;;;1999.90;999.90;;;13.90;76.20;;;;;;5031919;28;20656;-72
2022/04/17 09:08:16;;;;;;;1999.90;999.90;;;13.90;76.90;;;;;;5032123;28;20550;-72
2022/04/17 09:10:53;;;;;;;1999.90;999.90;;;13.90;73.10;;;;;;5032076;28;20425;-72
2022/04/17 09:13:27;;;;;;;1999.90;999.90;;;13.90;73.40;;;;;;5032126;28;20414;-72
2022/04/17 09:15:53;;;;;;;1999.90;999.90;;;13.90;66.30;;;;;;5031691;28;20455;-72
2022/04/17 09:18:19;;;;;;;1999.90;999.90;;;14.00;67.40;;;;;;5031943;28;20427;-72
2022/04/17 09:20:46;;;;;;;1999.90;999.90;;;14.00;60.70;;;;;;5030589;28;20427;-72
2022/04/17 09:23:12;;;;;;;1999.90;999.90;;;14.00;58.50;;;;;;5031797;28;20446;-72
2022/04/17 09:25:38;;;;;;;1999.90;999.90;;;14.10;65.10;;;;;;5031635;28;20423;-72
2022/04/17 09:28:07;;;;;;;1999.90;999.90;;;14.10;58.80;;;;;;5031835;28;20176;-72
2022/04/17 09:30:45;;;;;;;1999.90;999.90;;;14.00;59.10;;;;;;5031798;28;20211;-72
2022/04/17 09:33:13;;;;;;;1999.90;999.90;;;14.20;58.30;;;;;;5032343;28;20421;-72
2022/04/17 09:35:39;;;;;;;1999.90;999.90;;;14.10;57.70;;;;;;5037786;28;20446;-72
2022/04/17 09:38:07;;;;;;;1999.90;999.90;;;14.30;54.40;;;;;;5038436;28;20409;-72
2022/04/17 09:40:33;;;;;;;1999.90;999.90;;;14.30;55.40;;;;;;5038278;28;20489;-72
2022/04/17 09:43:09;;;;;;;1999.90;999.90;;;14.50;55.60;;;;;;5038389;28;20916;-72
2022/04/17 09:45:54;;;;;;;1999.90;999.90;;;14.70;59.40;;;;;;5038070;28;20407;-72
2022/04/17 09:48:20;;;;;;;1999.90;999.90;;;14.90;56.20;;;;;;5038223;28;20471;-72
2022/04/17 09:50:46;;;;;;;1999.90;999.90;;;15.10;58.30;;;;;;5038270;28;20824;-72
2022/04/17 09:53:28;;;;;;;1999.90;999.90;;;15.20;53.80;;;;;;5038357;28;20177;-72
2022/04/17 09:56:12;;;;;;;1999.90;999.90;;;15.40;59.70;;;;;;5038038;28;20210;-72
2022/04/17 09:58:51;;;;;;;1999.90;999.90;;;15.60;56.80;;;;;;5038282;28;20402;-72
2022/04/17 10:01:18;;;;;;;1999.90;999.90;;;15.70;52.30;;;;;;5038293;28;20406;-72
2022/04/17 10:03:45;;;;;;;1999.90;999.90;;;15.90;54.50;;;;;;5038140;28;20487;-72
2022/04/17 10:06:11;;;;;;;1999.90;999.90;;;16.00;54.60;;;;;;5037954;28;20406;-72
2022/04/17 10:08:42;;;;;;;1999.90;999.90;;;16.20;55.00;;;;;;5038149;28;20539;-73
2022/04/17 10:11:07;;;;;;;1999.90;999.90;;;16.30;56.30;;;;;;5038135;28;20458;-72
2022/04/17 10:13:35;;;;;;;1999.90;999.90;;;16.30;51.40;;;;;;5038173;28;20907;-72
2022/04/17 10:16:03;;;;;;;1999.90;999.90;;;16.40;54.10;;;;;;5037795;28;20678;-72
2022/04/17 10:18:36;;;;;;;1999.90;999.90;;;16.50;54.10;;;;;;5038097;28;20754;-72
2022/04/17 10:21:05;;;;;;;1999.90;999.90;;;16.60;50.10;;;;;;5037927;28;20815;-72
2022/04/17 10:23:32;;;;;;;1999.90;999.90;;;16.70;49.10;;;;;;5037873;28;20455;-72
2022/04/17 10:26:02;;;;;;;1999.90;999.90;;;16.70;47.20;;;;;;5037542;28;20406;-72
2022/04/17 10:28:36;;;;;;;1999.90;999.90;;;16.70;47.40;;;;;;5038064;28;20420;-72
2022/04/17 10:31:17;;;;;;;1999.90;999.90;;;16.90;47.20;;;;;;5037745;28;20449;-72
2022/04/17 10:33:52;;;;;;;1999.90;999.90;;;17.00;43.20;;;;;;5037731;28;20785;-72
2022/04/17 10:36:30;;;;;;;1999.90;999.90;;;17.10;42.60;;;;;;5037617;28;20439;-72
2022/04/17 10:39:06;;;;;;;1999.90;999.90;;;17.20;39.70;;;;;;5037901;28;20411;-72
2022/04/17 10:41:32;;;;;;;1999.90;999.90;;;17.30;42.50;;;;;;5037956;28;20429;-72
2022/04/17 10:43:59;;;;;;;1999.90;999.90;;;17.40;38.90;;;;;;5037834;28;20487;-72
2022/04/17 10:46:25;;;;;;;1999.90;999.90;;;17.30;36.40;;;;;;5035297;28;20172;-73
2022/04/17 10:48:57;;;;;;;1999.90;999.90;;;17.30;42.20;;;;;;5035177;28;20421;-72
2022/04/17 10:51:28;;;;;;;1999.90;999.90;;;17.20;39.40;;;;;;5036074;28;20444;-71
2022/04/17 10:54:10;;;;;;;1999.90;999.90;;;17.30;38.30;;;;;;5035955;28;20904;-73
2022/04/17 10:56:40;;;;;;;1999.90;999.90;;;17.40;38.30;;;;;;5035632;28;20845;-73
2022/04/17 10:59:19;;;;;;;1999.90;999.90;;;17.60;38.50;;;;;;5035368;28;20840;-72
2022/04/17 11:01:44;;;;;;;1999.90;999.90;;;17.60;37.50;;;;;;5035703;28;20402;-73
2022/04/17 11:04:22;;;;;;;1999.90;999.90;;;17.80;35.10;;;;;;5035234;28;20468;-73
2022/04/17 11:07:06;;;;;;;1999.90;999.90;;;18.00;36.20;;;;;;5035633;28;20234;-73
2022/04/17 11:09:42;;;;;;;1999.90;999.90;;;18.10;35.30;;;;;;5035600;28;20894;-73
2022/04/17 11:12:17;;;;;;;1999.90;999.90;;;18.20;33.80;;;;;;5035414;28;20456;-73
2022/04/17 11:15:01;;;;;;;1999.90;999.90;;;18.40;34.50;;;;;;5035487;28;20498;-73
2022/04/17 11:17:32;;;;;;;1999.90;999.90;;;18.50;32.60;;;;;;5035511;28;20452;-73
2022/04/17 11:20:00;;;;;;;1999.90;999.90;;;18.50;33.10;;;;;;5035252;28;21011;-72
2022/04/17 11:22:36;;;;;;;1999.90;999.90;;;18.60;31.60;;;;;;5035093;28;20900;-73
2022/04/17 11:25:06;;;;;;;1999.90;999.90;;;18.70;33.60;;;;;;5034487;28;20419;-73
2022/04/17 11:27:31;;;;;;;1999.90;999.90;;;18.80;30.10;;;;;;5034998;28;20794;-72
2022/04/17 11:30:01;;;;;;;1999.90;999.90;;;18.80;28.70;;;;;;5036064;28;20498;-72
2022/04/17 11:32:29;;;;;;;1999.90;999.90;;;19.00;33.40;;;;;;5034758;28;20702;-73
2022/04/17 11:35:02;;;;;;;1999.90;999.90;;;19.00;27.70;;;;;;5034007;28;20412;-73
2022/04/17 11:37:30;;;;;;;1999.90;999.90;;;19.00;27.50;;;;;;5034697;28;20459;-72
2022/04/17 11:40:00;;;;;;;1999.90;999.90;;;19.00;28.50;;;;;;5035256;28;20439;-73
2022/04/17 11:42:28;;;;;;;1999.90;999.90;;;19.00;29.30;;;;;;5035261;28;20413;-73
2022/04/17 11:44:59;;;;;;;1999.90;999.90;;;19.10;28.70;;;;;;5033753;28;20502;-72
2022/04/17 11:47:25;;;;;;;1999.90;999.90;;;19.20;29.60;;;;;;5034797;28;20406;-72
2022/04/17 11:49:51;;;;;;;1999.90;999.90;;;19.40;28.30;;;;;;5034727;28;20450;-73
2022/04/17 11:52:19;;;;;;;1999.90;999.90;;;19.80;27.80;;;;;;5035456;28;20411;-73
2022/04/17 11:54:45;;;;;;;1999.90;999.90;;;20.50;27.90;;;;;;5033877;28;20229;-74
2022/04/17 11:57:11;;;;;;;1999.90;999.90;;;21.30;26.90;;;;;;5033348;28;21054;-74
2022/04/17 11:59:48;;;;;;;1999.90;999.90;;;22.20;25.80;;;;;;5026755;28;20479;-71
2022/04/17 12:02:18;;;;;;;1999.90;999.90;;;22.80;23.00;;;;;;5032875;28;20388;-73
2022/04/17 12:04:45;;;;;;;1999.90;999.90;;;23.30;22.00;;;;;;5032892;28;20461;-73
2022/04/17 12:07:12;;;;;;;1999.90;999.90;;;23.30;20.20;;;;;;5032711;28;20804;-72
2022/04/17 12:09:39;;;;;;;1999.90;999.90;;;23.70;19.20;;;;;;5032892;28;20504;-73
2022/04/17 12:12:18;;;;;;;1999.90;999.90;;;24.30;19.00;;;;;;5033657;28;20469;-72
2022/04/17 12:14:45;;;;;;;1999.90;999.90;;;24.20;15.70;;;;;;5032778;28;20377;-74